Time;durP1;ratioP1;P1;durP2;ratioP2;P2;SDS_P1;SDS_P2;PMS_P1;PMS_P2;Temp;Humidity;BMP_temperature;BMP_pressure;BME280_temperature;BME280_humidity;BME280_pressure;Samples;Min_cycle;Max_cycle;Signal;HPM_P1;HPM_P2
2021/08/08 00:00:34;;;;;;;0.93;0.93;;;23.20;99.90;;;;;;4993927;28;20203;-90
2021/08/08 00:03:07;;;;;;;1.17;0.90;;;22.80;99.90;;;;;;4991286;28;20207;-88
2021/08/08 00:05:41;;;;;;;1.77;1.00;;;22.80;99.90;;;;;;4970602;28;20207;-90
2021/08/08 00:08:15;;;;;;;0.90;0.90;;;22.70;99.90;;;;;;4989458;28;20226;-90
2021/08/08 00:10:47;;;;;;;0.80;0.70;;;22.80;99.90;;;;;;4982627;28;20309;-90
2021/08/08 00:13:20;;;;;;;1.30;0.80;;;23.00;99.90;;;;;;4990149;28;20329;-91
2021/08/08 00:15:51;;;;;;;0.60;0.57;;;23.30;99.90;;;;;;4986653;28;20238;-90
2021/08/08 00:18:26;;;;;;;1.93;0.70;;;23.70;99.90;;;;;;4987853;28;20245;-90
2021/08/08 00:20:57;;;;;;;3.47;0.80;;;23.90;99.90;;;;;;4987499;28;20227;-91
2021/08/08 00:23:32;;;;;;;1.93;0.80;;;24.30;99.90;;;;;;5004432;28;20198;-91
2021/08/08 00:26:04;;;;;;;3.03;0.90;;;24.60;99.90;;;;;;4992011;28;20289;-91
2021/08/08 00:28:40;;;;;;;2.30;0.70;;;24.70;99.90;;;;;;5009092;28;20210;-90
2021/08/08 00:31:12;;;;;;;3.13;0.70;;;24.60;99.90;;;;;;5008219;28;20257;-90
2021/08/08 00:33:46;;;;;;;0.93;0.80;;;24.20;99.90;;;;;;5004095;28;20235;-90
2021/08/08 00:36:18;;;;;;;0.80;0.80;;;24.10;99.90;;;;;;5009615;28;20194;-90
2021/08/08 00:38:52;;;;;;;2.20;0.80;;;24.30;99.90;;;;;;5007296;28;20222;-90
2021/08/08 00:41:23;;;;;;;1.17;1.00;;;24.50;99.90;;;;;;5006032;28;20269;-90
2021/08/08 00:44:02;;;;;;;1.07;0.77;;;25.00;99.90;;;;;;5007269;28;20214;-90
2021/08/08 00:46:34;;;;;;;1.00;0.90;;;25.00;99.90;;;;;;5008446;28;20228;-90
2021/08/08 00:49:06;;;;;;;2.83;1.00;;;24.60;99.90;;;;;;5009847;28;20224;-90
2021/08/08 00:51:41;;;;;;;1.80;0.80;;;24.60;99.90;;;;;;5003669;28;20321;-90
2021/08/08 00:54:16;;;;;;;3.40;1.30;;;24.20;99.90;;;;;;5009225;28;20237;-89
2021/08/08 00:56:47;;;;;;;1.33;1.20;;;24.20;99.90;;;;;;5005649;28;20228;-89
2021/08/08 00:59:18;;;;;;;2.33;1.17;;;24.00;99.90;;;;;;5008832;28;20709;-89
2021/08/08 01:01:53;;;;;;;2.37;0.93;;;24.00;99.90;;;;;;5010254;28;20226;-90
2021/08/08 01:04:29;;;;;;;3.50;1.30;;;23.70;99.90;;;;;;5017460;28;20229;-89
2021/08/08 01:07:04;;;;;;;1.93;1.00;;;23.70;99.90;;;;;;5017300;28;20197;-90
2021/08/08 01:09:46;;;;;;;1.70;0.70;;;23.70;99.90;;;;;;4997168;28;20241;-90
2021/08/08 01:12:18;;;;;;;1.50;1.00;;;23.40;99.90;;;;;;5013609;28;20194;-90
2021/08/08 01:14:50;;;;;;;1.47;0.90;;;23.10;99.90;;;;;;5013013;28;20265;-90
2021/08/08 01:17:22;;;;;;;0.73;0.70;;;22.70;99.90;;;;;;5016684;28;20236;-90
2021/08/08 01:20:03;;;;;;;2.63;1.03;;;22.60;99.90;;;;;;5034531;28;20268;-90
2021/08/08 01:22:39;;;;;;;1.03;0.93;;;22.60;99.90;;;;;;5033537;28;20212;-91
2021/08/08 01:25:14;;;;;;;1.27;1.17;;;22.40;99.90;;;;;;5030892;28;20205;-90
2021/08/08 01:27:46;;;;;;;1.10;0.90;;;22.40;99.90;;;;;;5031242;28;20181;-89
2021/08/08 01:30:21;;;;;;;1.00;0.77;;;22.10;99.90;;;;;;5140027;23;20226;-91
2021/08/08 01:32:53;;;;;;;1.67;0.90;;;21.90;99.90;;;;;;5001349;28;20205;-90
2021/08/08 01:35:25;;;;;;;1.10;1.00;;;21.70;99.90;;;;;;4999600;28;20199;-90
2021/08/08 01:38:10;;;;;;;1.13;1.00;;;21.60;99.90;;;;;;4996289;28;20220;-90
2021/08/08 01:40:58;;;;;;;2.10;0.80;;;21.60;99.90;;;;;;5009548;28;20210;-90
2021/08/08 01:43:32;;;;;;;1.03;0.90;;;21.50;99.90;;;;;;5002026;28;20203;-91
2021/08/08 01:46:06;;;;;;;1.00;0.80;;;21.20;99.90;;;;;;4997341;28;20245;-90
2021/08/08 01:48:41;;;;;;;1.60;1.10;;;21.10;99.90;;;;;;4996968;28;20206;-90
2021/08/08 01:51:12;;;;;;;1.90;0.83;;;21.00;99.90;;;;;;4996231;28;20328;-90
2021/08/08 01:53:43;;;;;;;1.57;0.90;;;21.00;99.90;;;;;;4999676;28;20202;-89
2021/08/08 01:56:17;;;;;;;2.13;0.90;;;20.80;99.90;;;;;;5000589;28;20273;-90
2021/08/08 01:58:48;;;;;;;1.60;0.80;;;20.60;99.90;;;;;;4983167;28;20662;-89
2021/08/08 02:01:19;;;;;;;2.07;0.97;;;20.30;99.90;;;;;;5000443;28;20210;-89
2021/08/08 02:03:50;;;;;;;1.80;0.90;;;20.20;99.90;;;;;;5000783;28;20206;-89
2021/08/08 02:06:22;;;;;;;1.17;0.80;;;20.10;99.90;;;;;;5000764;28;20210;-90
2021/08/08 02:08:53;;;;;;;1.63;0.90;;;19.90;99.90;;;;;;5003072;28;20218;-89
2021/08/08 02:11:26;;;;;;;1.93;1.10;;;19.60;99.90;;;;;;4999800;28;20293;-89
2021/08/08 02:13:57;;;;;;;0.97;0.80;;;19.60;99.90;;;;;;4983660;28;20305;-90
2021/08/08 02:16:44;;;;;;;3.83;1.20;;;19.40;99.90;;;;;;5001524;28;20668;-89
2021/08/08 02:19:17;;;;;;;3.80;1.00;;;19.30;99.90;;;;;;5002783;28;20269;-90
2021/08/08 02:21:47;;;;;;;1.33;1.00;;;19.20;99.90;;;;;;4999558;28;20301;-90
2021/08/08 02:24:19;;;;;;;1.20;0.93;;;19.10;99.90;;;;;;5000624;28;20232;-90
2021/08/08 02:26:52;;;;;;;1.47;1.30;;;18.90;99.90;;;;;;4999761;28;20739;-90
2021/08/08 02:29:24;;;;;;;4.67;1.10;;;18.80;99.90;;;;;;4999802;28;20229;-90
2021/08/08 02:31:55;;;;;;;5.20;1.30;;;18.80;99.90;;;;;;4999055;28;20301;-90
2021/08/08 02:34:26;;;;;;;2.93;1.13;;;18.70;99.90;;;;;;4982434;28;20234;-90
2021/08/08 02:36:58;;;;;;;4.63;1.37;;;18.50;99.90;;;;;;4999837;28;20202;-89
2021/08/08 02:39:29;;;;;;;2.87;1.23;;;18.40;99.90;;;;;;4999691;28;20273;-89
2021/08/08 02:42:02;;;;;;;3.63;1.40;;;18.30;99.90;;;;;;4997850;28;20317;-90
2021/08/08 02:44:33;;;;;;;2.67;1.13;;;18.10;99.90;;;;;;5001261;28;20294;-89
2021/08/08 02:47:04;;;;;;;3.37;1.20;;;18.00;99.90;;;;;;5000136;28;20211;-90
2021/08/08 02:49:35;;;;;;;3.57;1.50;;;18.00;99.90;;;;;;4999080;28;20238;-89
2021/08/08 02:52:06;;;;;;;3.27;1.63;;;17.90;99.90;;;;;;4998349;28;20234;-89
2021/08/08 02:54:39;;;;;;;3.97;1.60;;;17.80;99.90;;;;;;5000760;28;20677;-89
2021/08/08 02:57:12;;;;;;;2.63;1.30;;;17.70;99.90;;;;;;5000303;28;20237;-89
2021/08/08 02:59:43;;;;;;;3.70;1.20;;;17.70;99.90;;;;;;4999157;28;20233;-89
2021/08/08 03:02:15;;;;;;;3.83;1.67;;;17.60;99.90;;;;;;4999680;28;20264;-89
2021/08/08 03:04:46;;;;;;;4.33;1.40;;;17.60;99.90;;;;;;4997786;28;20206;-89
2021/08/08 03:07:18;;;;;;;6.13;1.50;;;17.50;99.90;;;;;;5001110;28;20632;-90
2021/08/08 03:09:49;;;;;;;4.50;1.60;;;17.40;99.90;;;;;;5001306;28;20214;-89
2021/08/08 03:12:22;;;;;;;3.70;1.50;;;17.20;99.90;;;;;;4999555;28;20233;-90
2021/08/08 03:14:53;;;;;;;3.57;1.53;;;17.10;99.90;;;;;;4999553;28;20265;-89
2021/08/08 03:17:24;;;;;;;7.17;1.97;;;17.00;99.90;;;;;;5000374;28;20211;-89
2021/08/08 03:19:56;;;;;;;6.53;1.90;;;17.00;99.90;;;;;;5007096;28;20221;-87
2021/08/08 03:22:27;;;;;;;4.43;1.97;;;17.00;99.90;;;;;;5010935;28;20229;-89
2021/08/08 03:24:58;;;;;;;4.73;1.53;;;16.90;99.90;;;;;;5004966;28;20252;-90
2021/08/08 03:27:31;;;;;;;4.13;1.53;;;16.80;99.90;;;;;;5017305;28;20194;-90
2021/08/08 03:30:08;;;;;;;5.70;1.77;;;16.80;99.90;;;;;;5018040;28;20217;-88
2021/08/08 03:32:41;;;;;;;6.83;2.13;;;16.70;99.90;;;;;;5008846;28;20207;-89
2021/08/08 03:35:13;;;;;;;7.07;2.30;;;16.60;99.90;;;;;;5002326;28;20214;-89
2021/08/08 03:37:44;;;;;;;3.83;1.70;;;16.60;99.90;;;;;;4994758;28;20235;-89
2021/08/08 03:40:16;;;;;;;3.73;1.90;;;16.60;99.90;;;;;;4979079;28;20235;-90
2021/08/08 03:43:04;;;;;;;5.37;2.00;;;16.50;99.90;;;;;;4981874;28;20218;-89
2021/08/08 03:48:35;;;;;;;4.30;1.70;;;16.60;99.90;;;;;;5003257;28;20214;-89
2021/08/08 03:51:09;;;;;;;4.10;1.43;;;16.50;99.90;;;;;;4992300;28;20226;-89
2021/08/08 03:53:47;;;;;;;4.57;1.60;;;16.50;99.90;;;;;;5014559;28;20198;-90
2021/08/08 03:56:22;;;;;;;2.60;1.50;;;16.50;99.90;;;;;;5009861;28;20217;-90
2021/08/08 03:59:07;;;;;;;6.03;2.10;;;16.40;99.90;;;;;;4998286;28;20210;-90
2021/08/08 04:01:39;;;;;;;4.97;1.60;;;16.40;99.90;;;;;;5010344;28;20266;-90
2021/08/08 04:04:10;;;;;;;4.23;1.70;;;16.40;99.90;;;;;;5011479;28;20274;-90
2021/08/08 04:06:43;;;;;;;5.00;1.70;;;16.40;99.90;;;;;;4993467;28;20237;-90
2021/08/08 04:09:15;;;;;;;5.33;1.80;;;16.40;99.90;;;;;;4986807;28;20326;-90
2021/08/08 04:11:49;;;;;;;7.27;1.87;;;16.30;99.90;;;;;;4992687;28;20233;-90
2021/08/08 04:14:22;;;;;;;4.30;1.60;;;16.30;99.90;;;;;;4991167;28;20221;-90
2021/08/08 04:16:53;;;;;;;2.50;1.57;;;16.20;99.90;;;;;;5009014;28;20214;-90
2021/08/08 04:19:25;;;;;;;6.30;2.20;;;16.20;99.90;;;;;;5011015;28;20229;-91
2021/08/08 04:21:57;;;;;;;5.57;1.80;;;16.10;99.90;;;;;;4993879;28;20290;-90
2021/08/08 04:24:31;;;;;;;5.37;2.07;;;16.20;99.90;;;;;;5010301;28;20209;-90
2021/08/08 04:27:06;;;;;;;5.43;1.80;;;16.10;99.90;;;;;;5008373;28;20226;-91
2021/08/08 04:29:41;;;;;;;6.13;2.13;;;16.20;99.90;;;;;;5010796;28;20209;-90
2021/08/08 04:32:13;;;;;;;4.33;1.90;;;16.20;99.90;;;;;;5007663;28;20252;-91
2021/08/08 04:34:45;;;;;;;6.57;2.03;;;16.20;99.90;;;;;;5009796;28;20220;-90
2021/08/08 04:37:16;;;;;;;4.87;2.10;;;16.30;99.90;;;;;;5005777;28;20234;-90
2021/08/08 04:39:52;;;;;;;4.77;1.93;;;16.30;99.90;;;;;;5009176;28;20211;-90
2021/08/08 04:42:23;;;;;;;6.70;2.17;;;16.30;99.90;;;;;;5008560;28;20208;-90
2021/08/08 04:44:57;;;;;;;5.53;2.10;;;16.30;99.90;;;;;;5009283;28;20210;-90
2021/08/08 04:47:28;;;;;;;5.87;2.50;;;16.30;99.90;;;;;;5006467;28;20214;-90
2021/08/08 04:50:00;;;;;;;6.40;2.13;;;16.30;99.90;;;;;;4980712;28;20289;-90
2021/08/08 04:52:40;;;;;;;6.97;2.10;;;16.20;99.90;;;;;;5005387;28;20233;-90
2021/08/08 04:55:12;;;;;;;4.87;1.73;;;16.20;99.90;;;;;;5008930;28;20226;-90
2021/08/08 04:57:44;;;;;;;4.47;2.00;;;16.20;99.90;;;;;;5006768;28;20252;-90
2021/08/08 05:00:19;;;;;;;6.93;2.60;;;16.20;99.90;;;;;;5008766;28;20210;-90
2021/08/08 05:02:51;;;;;;;5.07;1.90;;;16.20;99.90;;;;;;5009577;28;20217;-90
2021/08/08 05:05:23;;;;;;;5.93;2.80;;;16.20;99.90;;;;;;4987286;28;20229;-90
2021/08/08 05:07:57;;;;;;;5.90;2.07;;;16.20;99.90;;;;;;5006780;28;20222;-90
2021/08/08 05:10:29;;;;;;;6.33;2.70;;;16.10;99.90;;;;;;5006203;28;20321;-90
2021/08/08 05:13:00;;;;;;;5.20;2.10;;;16.10;99.90;;;;;;4997485;28;20241;-89
2021/08/08 05:15:37;;;;;;;5.87;2.00;;;16.10;99.90;;;;;;5005157;28;20203;-90
2021/08/08 05:18:12;;;;;;;6.03;2.30;;;16.10;99.90;;;;;;5007488;28;20739;-90
2021/08/08 05:20:47;;;;;;;4.73;1.87;;;16.10;99.90;;;;;;4991754;28;20291;-90
2021/08/08 05:23:20;;;;;;;5.30;1.87;;;16.10;99.90;;;;;;5005224;28;20240;-88
2021/08/08 05:25:55;;;;;;;2.67;1.60;;;16.10;99.90;;;;;;5010021;28;20291;-91
2021/08/08 05:28:27;;;;;;;4.97;1.93;;;16.10;99.90;;;;;;5006628;28;20210;-90
2021/08/08 05:31:01;;;;;;;8.17;1.90;;;16.00;99.90;;;;;;5004347;28;20210;-90
2021/08/08 05:33:33;;;;;;;4.93;1.60;;;16.00;99.90;;;;;;5008397;28;20214;-90
2021/08/08 05:36:04;;;;;;;4.20;2.00;;;16.00;99.90;;;;;;5009589;28;20206;-90
2021/08/08 05:38:35;;;;;;;4.40;2.03;;;16.10;99.90;;;;;;5009463;28;20210;-90
2021/08/08 05:41:06;;;;;;;5.77;1.80;;;16.10;99.90;;;;;;4996247;28;20288;-87
2021/08/08 05:43:37;;;;;;;4.70;2.30;;;16.10;99.90;;;;;;4998482;28;20282;-91
2021/08/08 05:46:11;;;;;;;8.17;2.37;;;16.00;99.90;;;;;;4997454;28;20217;-90
2021/08/08 05:48:43;;;;;;;6.03;1.73;;;16.00;99.90;;;;;;5012921;28;20202;-92
2021/08/08 05:51:14;;;;;;;5.87;1.87;;;16.00;99.90;;;;;;5013861;28;20257;-91
2021/08/08 05:53:57;;;;;;;5.33;2.50;;;16.00;99.90;;;;;;5016409;28;20222;-90
2021/08/08 05:56:28;;;;;;;4.93;2.20;;;16.00;99.90;;;;;;4996841;28;20297;-90
2021/08/08 05:58:58;;;;;;;6.53;2.27;;;16.00;99.90;;;;;;4998737;28;20260;-91
2021/08/08 06:01:32;;;;;;;7.37;2.40;;;16.00;99.90;;;;;;4996221;28;20293;-90
2021/08/08 06:04:03;;;;;;;6.20;2.00;;;15.90;99.90;;;;;;4997976;28;20242;-90
2021/08/08 06:06:43;;;;;;;5.90;1.97;;;15.90;99.90;;;;;;5001092;28;20245;-91
2021/08/08 06:09:15;;;;;;;5.67;2.27;;;15.90;99.90;;;;;;5005426;28;20268;-91
2021/08/08 06:11:48;;;;;;;5.17;2.30;;;15.90;99.90;;;;;;5007605;28;20329;-90
2021/08/08 06:14:19;;;;;;;5.50;2.20;;;15.80;99.90;;;;;;5008417;28;20215;-90
2021/08/08 06:16:54;;;;;;;5.90;2.10;;;15.80;99.90;;;;;;5011110;28;20202;-90
2021/08/08 06:19:25;;;;;;;6.00;2.17;;;15.70;99.90;;;;;;4996577;28;20239;-91
2021/08/08 06:21:57;;;;;;;4.80;2.00;;;15.70;99.90;;;;;;5001842;28;20227;-90
2021/08/08 06:24:29;;;;;;;3.80;2.10;;;15.70;99.90;;;;;;4981206;28;20266;-91
2021/08/08 06:27:01;;;;;;;6.23;2.20;;;15.60;99.90;;;;;;4982883;28;20214;-91
2021/08/08 06:29:33;;;;;;;5.93;2.37;;;15.70;99.90;;;;;;4988917;28;20236;-91
2021/08/08 06:32:09;;;;;;;5.30;2.33;;;15.60;99.90;;;;;;4996041;28;20224;-90
2021/08/08 06:34:42;;;;;;;3.23;2.00;;;15.70;99.90;;;;;;4999035;28;20234;-90
2021/08/08 06:37:13;;;;;;;6.00;2.10;;;15.60;99.90;;;;;;4999544;28;20222;-90
2021/08/08 06:39:44;;;;;;;5.27;1.77;;;15.60;99.90;;;;;;5000048;28;20298;-90
2021/08/08 06:42:16;;;;;;;5.70;2.70;;;15.50;99.90;;;;;;5002014;28;20234;-89
2021/08/08 06:44:47;;;;;;;5.07;2.20;;;15.60;99.90;;;;;;5002525;28;20214;-88
2021/08/08 06:47:21;;;;;;;5.57;2.10;;;15.60;99.90;;;;;;4985898;28;20210;-89
2021/08/08 06:49:53;;;;;;;5.93;2.20;;;15.60;99.90;;;;;;5004421;28;20270;-89
2021/08/08 06:52:24;;;;;;;5.40;2.43;;;15.50;99.90;;;;;;5003022;28;20253;-89
2021/08/08 06:54:55;;;;;;;6.03;1.93;;;15.50;99.90;;;;;;5000996;28;20229;-90
2021/08/08 06:57:27;;;;;;;9.73;2.40;;;15.50;99.90;;;;;;5054604;23;20229;-89
2021/08/08 06:59:58;;;;;;;4.63;2.00;;;15.40;99.90;;;;;;5059927;22;20237;-88
2021/08/08 07:02:31;;;;;;;6.57;2.57;;;15.40;99.90;;;;;;5004172;28;20238;-89
2021/08/08 07:05:04;;;;;;;8.10;2.30;;;15.30;99.90;;;;;;5003399;28;20215;-88
2021/08/08 07:07:35;;;;;;;5.80;2.23;;;15.30;99.90;;;;;;5005516;28;20206;-88
2021/08/08 07:10:07;;;;;;;4.90;2.03;;;15.30;99.90;;;;;;5001908;28;20249;-88
2021/08/08 07:12:39;;;;;;;5.07;2.67;;;15.20;99.90;;;;;;5000291;28;20257;-89
2021/08/08 07:15:11;;;;;;;6.27;2.60;;;15.20;99.90;;;;;;5002377;28;20245;-89
2021/08/08 07:17:44;;;;;;;5.00;2.30;;;15.10;99.90;;;;;;5015662;28;20198;-89
2021/08/08 07:20:16;;;;;;;4.57;2.10;;;15.10;99.90;;;;;;5015680;28;20237;-89
2021/08/08 07:22:47;;;;;;;6.23;2.33;;;15.00;99.90;;;;;;5016855;28;20253;-88
2021/08/08 07:25:21;;;;;;;6.77;2.50;;;15.00;99.90;;;;;;5012712;28;20233;-88
2021/08/08 07:27:52;;;;;;;3.23;2.33;;;15.00;99.90;;;;;;5018615;28;20217;-88
2021/08/08 07:30:25;;;;;;;5.53;2.10;;;15.00;99.90;;;;;;5181726;23;20222;-91
2021/08/08 07:32:58;;;;;;;9.53;2.87;;;15.10;99.90;;;;;;5018757;28;20206;-89
2021/08/08 07:35:29;;;;;;;8.90;2.60;;;15.20;99.90;;;;;;5015255;28;20207;-89
2021/08/08 07:38:00;;;;;;;5.87;2.37;;;15.20;99.90;;;;;;5017258;28;20257;-90
2021/08/08 07:40:32;;;;;;;6.13;2.73;;;15.20;99.90;;;;;;5015897;28;20234;-88
2021/08/08 07:43:06;;;;;;;4.73;2.10;;;15.30;99.90;;;;;;5003311;28;20240;-88
2021/08/08 07:45:38;;;;;;;8.47;2.37;;;15.40;99.90;;;;;;5002722;28;20225;-89
2021/08/08 07:48:11;;;;;;;7.37;2.37;;;15.50;99.90;;;;;;5002166;28;20218;-89
2021/08/08 07:50:43;;;;;;;5.50;2.20;;;15.50;99.90;;;;;;4993232;28;20303;-89
2021/08/08 07:53:15;;;;;;;5.27;2.33;;;15.50;99.90;;;;;;4982182;28;20211;-90
2021/08/08 07:55:49;;;;;;;7.83;2.00;;;15.50;99.90;;;;;;4982598;28;20242;-90
2021/08/08 07:58:21;;;;;;;7.87;2.67;;;15.60;99.90;;;;;;4983135;28;20298;-88
2021/08/08 08:00:51;;;;;;;8.33;2.33;;;15.60;99.90;;;;;;5024253;22;20774;-88
2021/08/08 08:03:26;;;;;;;5.63;1.90;;;15.60;99.90;;;;;;5001861;28;20226;-88
2021/08/08 08:05:57;;;;;;;7.37;2.23;;;15.60;99.90;;;;;;5002414;28;20241;-89
2021/08/08 08:08:28;;;;;;;5.90;2.33;;;15.50;99.90;;;;;;5007659;28;20202;-89
2021/08/08 08:10:59;;;;;;;6.90;2.17;;;15.50;99.90;;;;;;5006412;28;20367;-90
2021/08/08 08:13:30;;;;;;;6.37;2.17;;;15.60;99.90;;;;;;4996213;28;20219;-88
2021/08/08 08:16:01;;;;;;;9.80;2.40;;;15.60;99.90;;;;;;4987302;28;20301;-88
2021/08/08 08:18:34;;;;;;;6.43;2.50;;;15.50;99.90;;;;;;4982410;28;20322;-88
2021/08/08 08:21:06;;;;;;;6.57;2.17;;;15.50;99.90;;;;;;4998901;28;20313;-89
2021/08/08 08:23:37;;;;;;;7.87;2.50;;;15.50;99.90;;;;;;5001418;28;20316;-88
2021/08/08 08:26:09;;;;;;;8.37;2.47;;;15.50;99.90;;;;;;5002519;28;20274;-89
2021/08/08 08:28:40;;;;;;;8.27;2.20;;;15.30;99.90;;;;;;5000592;28;20721;-89
2021/08/08 08:31:11;;;;;;;8.10;2.80;;;15.30;99.90;;;;;;4998934;28;20222;-89
2021/08/08 08:33:44;;;;;;;8.47;2.67;;;15.20;99.90;;;;;;4999125;28;20660;-89
2021/08/08 08:36:17;;;;;;;7.77;2.50;;;15.20;99.90;;;;;;4998947;28;20234;-88
2021/08/08 08:38:48;;;;;;;6.53;2.60;;;15.20;99.90;;;;;;4999266;28;20218;-89
2021/08/08 08:41:24;;;;;;;3.97;2.20;;;15.20;99.90;;;;;;4997025;28;20265;-89
2021/08/08 08:43:56;;;;;;;8.17;2.33;;;15.10;99.90;;;;;;4998739;28;20305;-89
2021/08/08 08:46:34;;;;;;;7.93;2.03;;;15.20;99.90;;;;;;4997884;28;20220;-89
2021/08/08 08:49:11;;;;;;;5.13;1.90;;;15.20;99.90;;;;;;4998535;28;20294;-89
2021/08/08 08:51:45;;;;;;;7.57;2.17;;;15.10;99.90;;;;;;4998114;28;20308;-89
2021/08/08 08:54:19;;;;;;;6.37;2.60;;;15.10;99.90;;;;;;5009194;28;20237;-88
2021/08/08 08:56:51;;;;;;;5.57;1.93;;;15.10;99.90;;;;;;4999328;28;20293;-89
2021/08/08 08:59:22;;;;;;;6.23;2.17;;;15.10;99.90;;;;;;5001766;28;20215;-89
2021/08/08 09:01:53;;;;;;;6.50;2.33;;;15.00;99.90;;;;;;5006833;28;20210;-88
2021/08/08 09:04:26;;;;;;;7.73;2.80;;;15.00;99.90;;;;;;5001619;28;20330;-89
2021/08/08 09:06:57;;;;;;;10.73;2.17;;;15.10;99.90;;;;;;4999298;28;20656;-89
2021/08/08 09:09:29;;;;;;;6.37;2.37;;;15.10;99.90;;;;;;4998556;28;20213;-89
2021/08/08 09:12:00;;;;;;;6.53;2.40;;;15.10;99.90;;;;;;4995622;28;20245;-89
2021/08/08 09:14:34;;;;;;;6.03;2.43;;;15.00;99.90;;;;;;4997933;28;20278;-89
2021/08/08 09:17:09;;;;;;;6.97;2.13;;;15.00;99.90;;;;;;4997685;28;20229;-90
2021/08/08 09:19:42;;;;;;;5.30;2.20;;;15.00;99.90;;;;;;4997999;28;20210;-88
2021/08/08 09:22:23;;;;;;;5.93;2.17;;;15.00;99.90;;;;;;4998953;28;20221;-90
2021/08/08 09:24:54;;;;;;;5.30;2.00;;;15.00;99.90;;;;;;4997230;28;20293;-90
2021/08/08 09:27:35;;;;;;;7.10;2.23;;;15.00;99.90;;;;;;4996799;28;20256;-90
2021/08/08 09:30:17;;;;;;;6.33;2.30;;;15.00;99.90;;;;;;4997042;28;20202;-90
2021/08/08 09:32:50;;;;;;;8.73;2.60;;;14.90;99.90;;;;;;4996554;28;20214;-90
2021/08/08 09:35:24;;;;;;;7.57;2.33;;;14.90;99.90;;;;;;4996450;28;20210;-90
2021/08/08 09:38:07;;;;;;;8.87;2.60;;;14.90;99.90;;;;;;4982244;28;20207;-90
2021/08/08 09:40:39;;;;;;;7.07;2.73;;;14.90;99.90;;;;;;4975993;28;20262;-89
2021/08/08 09:43:12;;;;;;;6.23;2.70;;;14.90;99.90;;;;;;4977141;28;20230;-89
2021/08/08 09:45:44;;;;;;;6.97;3.00;;;14.90;99.90;;;;;;4975824;28;20712;-89
2021/08/08 09:48:15;;;;;;;6.70;2.57;;;14.90;99.90;;;;;;4978141;28;20202;-90
2021/08/08 09:50:49;;;;;;;7.13;2.30;;;14.90;99.90;;;;;;4975756;28;20270;-89
2021/08/08 09:53:22;;;;;;;5.63;1.90;;;15.00;99.90;;;;;;4978284;28;20213;-89
2021/08/08 09:55:53;;;;;;;5.77;2.17;;;15.00;99.90;;;;;;4991955;28;20214;-89
2021/08/08 09:58:27;;;;;;;9.07;2.40;;;14.90;99.90;;;;;;4994271;28;20211;-90
2021/08/08 10:01:00;;;;;;;7.27;2.37;;;14.90;99.90;;;;;;4977234;28;20222;-90
2021/08/08 10:03:32;;;;;;;4.93;2.30;;;14.80;99.90;;;;;;4978750;28;20235;-89
2021/08/08 10:06:10;;;;;;;7.30;2.30;;;14.80;99.90;;;;;;4978139;28;20207;-90
2021/08/08 10:08:47;;;;;;;5.80;2.23;;;14.80;99.90;;;;;;4976538;28;20303;-90
2021/08/08 10:11:19;;;;;;;5.57;1.97;;;14.80;99.90;;;;;;4976936;28;20252;-90
2021/08/08 10:13:52;;;;;;;4.47;2.10;;;14.70;99.90;;;;;;4978932;28;20246;-90
2021/08/08 10:16:24;;;;;;;6.33;2.23;;;14.70;99.90;;;;;;4986913;28;20255;-90
2021/08/08 10:18:57;;;;;;;7.17;2.20;;;14.70;99.90;;;;;;4999736;28;20227;-89
2021/08/08 10:21:33;;;;;;;5.53;2.47;;;14.70;99.90;;;;;;4983962;28;20211;-89
2021/08/08 10:24:07;;;;;;;5.80;2.20;;;14.70;99.90;;;;;;4982584;28;20681;-90
2021/08/08 10:26:39;;;;;;;4.53;1.97;;;14.50;99.90;;;;;;4983532;28;20230;-90
2021/08/08 10:29:10;;;;;;;6.00;2.27;;;14.40;99.90;;;;;;4984018;28;20274;-88
2021/08/08 10:31:42;;;;;;;6.73;2.50;;;14.40;99.90;;;;;;4991673;28;20222;-88
2021/08/08 10:34:13;;;;;;;6.00;2.10;;;14.40;99.90;;;;;;5000922;28;20183;-89
2021/08/08 10:36:47;;;;;;;6.27;2.20;;;14.30;99.90;;;;;;5000160;28;20190;-89
2021/08/08 10:39:19;;;;;;;3.77;2.07;;;14.30;99.90;;;;;;5000005;28;20199;-90
2021/08/08 10:42:01;;;;;;;5.37;2.33;;;14.50;99.90;;;;;;4997734;28;20215;-89
2021/08/08 10:44:32;;;;;;;5.27;2.23;;;14.50;99.90;;;;;;4987473;28;20285;-89
2021/08/08 10:47:03;;;;;;;6.30;2.60;;;14.60;99.90;;;;;;4985531;28;20213;-88
2021/08/08 10:49:36;;;;;;;5.63;2.03;;;14.60;99.90;;;;;;4981698;28;20215;-88
2021/08/08 10:52:13;;;;;;;8.50;2.87;;;14.60;99.90;;;;;;4979648;28;20221;-89
2021/08/08 10:54:44;;;;;;;5.70;2.43;;;14.50;99.90;;;;;;4979988;28;20294;-89
2021/08/08 10:57:17;;;;;;;6.77;2.63;;;14.50;99.90;;;;;;4980022;28;20632;-89
2021/08/08 10:59:49;;;;;;;5.63;2.70;;;14.30;99.90;;;;;;4979672;28;20262;-88
2021/08/08 11:02:30;;;;;;;7.67;3.40;;;14.30;99.90;;;;;;4979039;28;20234;-89
2021/08/08 11:05:12;;;;;;;9.10;3.07;;;14.40;99.90;;;;;;4979608;28;20266;-89
2021/08/08 11:07:46;;;;;;;7.67;3.30;;;14.40;99.90;;;;;;4979764;28;20297;-89
2021/08/08 11:10:27;;;;;;;10.67;2.80;;;14.30;99.90;;;;;;4998395;28;20221;-89
2021/08/08 11:12:58;;;;;;;13.53;3.07;;;14.20;99.90;;;;;;5003871;28;20225;-88
2021/08/08 11:15:37;;;;;;;9.17;3.23;;;14.10;99.90;;;;;;4999485;28;20276;-89
2021/08/08 11:18:09;;;;;;;10.40;4.17;;;14.10;99.90;;;;;;4999797;28;20302;-89
2021/08/08 11:20:40;;;;;;;11.37;4.27;;;14.10;99.90;;;;;;4997536;28;20591;-89
2021/08/08 11:23:13;;;;;;;7.67;3.83;;;13.90;99.90;;;;;;4999126;28;20708;-88
2021/08/08 11:25:46;;;;;;;7.40;3.10;;;13.80;99.90;;;;;;4998254;28;20317;-89
2021/08/08 11:28:20;;;;;;;8.07;3.30;;;13.80;99.90;;;;;;4998841;28;20249;-88
2021/08/08 11:30:54;;;;;;;10.73;3.77;;;13.90;99.90;;;;;;5012795;28;20213;-88
2021/08/08 11:33:27;;;;;;;8.03;3.37;;;13.90;99.90;;;;;;5013459;28;20213;-89
2021/08/08 11:36:02;;;;;;;9.23;3.53;;;13.90;99.90;;;;;;4998524;28;20241;-88
2021/08/08 11:38:35;;;;;;;10.40;3.77;;;13.80;99.90;;;;;;4998414;28;20626;-88
2021/08/08 11:41:06;;;;;;;6.13;3.27;;;13.90;99.90;;;;;;4997479;28;20237;-88
2021/08/08 11:43:37;;;;;;;11.10;3.33;;;13.90;99.90;;;;;;4999197;28;20242;-89
2021/08/08 11:46:08;;;;;;;6.40;3.00;;;13.80;99.90;;;;;;4998453;28;20661;-89
2021/08/08 11:48:41;;;;;;;7.93;3.20;;;13.80;99.90;;;;;;4998648;28;20553;-88
2021/08/08 11:51:12;;;;;;;6.57;3.20;;;13.80;99.90;;;;;;4998081;28;20242;-88
2021/08/08 11:53:46;;;;;;;7.40;3.17;;;13.80;99.90;;;;;;4997456;28;20284;-88
2021/08/08 11:56:19;;;;;;;7.90;3.80;;;13.80;99.90;;;;;;4991656;28;20301;-88
2021/08/08 11:58:51;;;;;;;8.47;3.60;;;13.80;99.90;;;;;;4993778;28;20230;-88
2021/08/08 12:01:24;;;;;;;5.53;3.00;;;13.80;99.90;;;;;;4978266;28;20298;-88
2021/08/08 12:04:06;;;;;;;8.00;3.10;;;13.80;99.90;;;;;;4980610;28;20207;-88
2021/08/08 12:06:38;;;;;;;7.60;3.40;;;13.80;99.90;;;;;;4980821;28;20206;-88
2021/08/08 12:09:11;;;;;;;4.10;3.03;;;13.80;99.90;;;;;;4981062;28;20297;-88
2021/08/08 12:11:51;;;;;;;6.23;2.97;;;13.80;99.90;;;;;;4980553;28;20554;-88
2021/08/08 12:14:32;;;;;;;9.57;3.70;;;13.80;99.90;;;;;;4981027;28;20218;-88
2021/08/08 12:17:08;;;;;;;7.03;3.23;;;13.90;99.90;;;;;;4982427;28;20589;-89
2021/08/08 12:19:40;;;;;;;6.97;2.90;;;13.80;99.90;;;;;;5001867;28;20213;-89
2021/08/08 12:22:15;;;;;;;4.27;2.57;;;13.90;99.90;;;;;;5032396;28;20210;-88
2021/08/08 12:24:49;;;;;;;6.57;3.07;;;13.90;99.90;;;;;;5037349;28;20247;-88
2021/08/08 12:27:32;;;;;;;6.90;2.80;;;13.90;99.90;;;;;;5037383;28;20205;-89
2021/08/08 12:30:07;;;;;;;5.53;2.93;;;13.90;99.90;;;;;;5023808;28;20241;-88
2021/08/08 12:32:40;;;;;;;5.70;3.00;;;13.90;99.90;;;;;;5020726;28;20545;-88
2021/08/08 12:35:13;;;;;;;5.97;3.00;;;13.80;99.90;;;;;;4982017;28;20203;-88
2021/08/08 12:37:46;;;;;;;7.27;3.00;;;13.80;99.90;;;;;;4978095;28;20245;-88
2021/08/08 12:40:23;;;;;;;6.67;3.20;;;13.90;99.90;;;;;;4978115;28;20287;-88
2021/08/08 12:43:04;;;;;;;4.87;3.07;;;13.90;99.90;;;;;;4978648;28;20199;-88
2021/08/08 12:45:37;;;;;;;5.13;2.87;;;13.90;99.90;;;;;;4978038;28;20270;-88
2021/08/08 12:48:09;;;;;;;4.17;2.70;;;13.90;99.90;;;;;;4978471;28;20698;-88
2021/08/08 12:50:42;;;;;;;4.93;3.10;;;13.90;99.90;;;;;;4978679;28;20261;-88
2021/08/08 12:53:13;;;;;;;7.40;3.33;;;14.00;99.90;;;;;;4981718;28;20203;-88
2021/08/08 12:55:47;;;;;;;5.20;2.90;;;14.00;99.90;;;;;;4992940;28;20199;-88
2021/08/08 12:58:18;;;;;;;6.20;2.80;;;14.00;99.90;;;;;;4997044;28;20222;-88
2021/08/08 13:00:49;;;;;;;5.30;3.10;;;14.10;99.90;;;;;;5012346;28;20206;-89
2021/08/08 13:03:21;;;;;;;5.03;2.97;;;14.10;99.90;;;;;;5003466;28;20215;-89
2021/08/08 13:05:52;;;;;;;7.20;2.77;;;14.00;99.90;;;;;;4988281;28;20230;-89
2021/08/08 13:08:24;;;;;;;5.43;2.90;;;14.00;99.90;;;;;;4980082;28;20234;-87
2021/08/08 13:10:58;;;;;;;3.90;2.77;;;14.00;99.90;;;;;;4977325;28;20246;-89
2021/08/08 13:13:29;;;;;;;7.43;3.03;;;14.00;99.90;;;;;;4978214;28;20239;-88
2021/08/08 13:16:01;;;;;;;6.63;3.00;;;14.00;99.90;;;;;;4980667;28;20329;-88
2021/08/08 13:18:32;;;;;;;5.33;2.97;;;14.00;99.90;;;;;;4989663;28;20632;-88